This is the latest recevied weather packets stored in our database for station/object S51UL-6. If no packets are shown the sender has not sent any weather packets the latest 10 day(s).
| Time | Temp. | Humidity | Pressure | Rain* | Wind** | Luminosity | Snow |
|---|---|---|---|---|---|---|---|
| 1777885434 | 23.89° C | 47% | 1017.3 hPa | 0 mm | - | - | - |
| 1777885129 | 23.89° C | 47% | 1017.3 hPa | 0 mm | - | - | - |
| 1777884530 | 23.33° C | 49% | 1017.4 hPa | 0 mm | - | - | - |
| 1777883933 | 22.78° C | 51% | 1017.5 hPa | 0 mm | - | - | - |
| 1777883630 | 22.78° C | 51% | 1017.6 hPa | 0 mm | - | - | - |
| 1777883329 | 22.78° C | 51% | 1017.6 hPa | 0 mm | - | - | - |
| 1777882731 | 22.22° C | 52% | 1017.8 hPa | 0 mm | - | - | - |
| 1777882429 | 22.22° C | 55% | 1017.8 hPa | 0 mm | - | - | - |
| 1777882130 | 21.67° C | 56% | 1017.7 hPa | 0 mm | - | - | - |
| 1777881531 | 20.56° C | 59% | 1017.8 hPa | 0 mm | - | - | - |
| 1777880930 | 19.44° C | 63% | 1017.8 hPa | 0 mm | - | - | - |
| 1777880631 | 18.89° C | 66% | 1017.8 hPa | 0 mm | - | - | - |
| 1777879730 | 16.11° C | 70% | 1017.9 hPa | 0 mm | - | - | - |
| 1777879431 | 15.56° C | 72% | 1017.9 hPa | 0 mm | - | - | - |
| 1777878830 | 14.44° C | 73% | 1017.8 hPa | 0 mm | - | - | - |
| 1777878231 | 13.89° C | 74% | 1017.7 hPa | 0 mm | - | - | - |
| 1777877930 | 13.33° C | 75% | 1017.7 hPa | 0 mm | - | - | - |
| 1777877633 | 13.33° C | 76% | 1017.8 hPa | 0 mm | - | - | - |
| 1777876431 | 12.78° C | 79% | 1017.7 hPa | 0 mm | - | - | - |
| 1777875832 | 11.67° C | 80% | 1017.6 hPa | 0 mm | - | - | - |
| 1777874934 | 10.56° C | 83% | 1017.6 hPa | 0 mm | - | - | - |
| 1777874632 | 10.56° C | 83% | 1017.6 hPa | 0 mm | - | - | - |
| 1777873732 | 8.89° C | 84% | 1017.7 hPa | 0 mm | - | - | - |
| 1777873434 | 8.33° C | 84% | 1017.6 hPa | 0 mm | - | - | - |
| 1777873132 | 8.33° C | 83% | 1017.7 hPa | 0 mm | - | - | - |
* Rain latest hour (hover to see other rain measurements)
** Current wind speed in m/s (hover to see current wind gust speed)